Time;durP1;ratioP1;P1;durP2;ratioP2;P2;SDS_P1;SDS_P2;PMS_P1;PMS_P2;Temp;Humidity;BMP_temperature;BMP_pressure;BME280_temperature;BME280_humidity;BME280_pressure;Samples;Min_cycle;Max_cycle;Signal;HPM_P1;HPM_P2
2023/09/14 00:01:14;;;;;;;10.05;2.25;;;;;;;9.23;100.00;100892.22;5056462;28;20132;-58
2023/09/14 00:03:41;;;;;;;6.05;2.60;;;;;;;9.17;100.00;100895.50;5056749;28;20479;-59
2023/09/14 00:06:09;;;;;;;5.85;2.58;;;;;;;8.78;100.00;100829.59;5056821;28;20049;-59
2023/09/14 00:08:35;;;;;;;9.00;3.20;;;;;;;8.74;100.00;100811.28;5056589;28;20075;-60
2023/09/14 00:11:03;;;;;;;7.20;2.47;;;;;;;9.04;100.00;100859.19;5055290;28;20045;-64
2023/09/14 00:13:30;;;;;;;6.03;2.47;;;;;;;9.05;100.00;100868.06;5061634;28;20109;-59
2023/09/14 00:15:57;;;;;;;6.15;2.63;;;;;;;9.19;100.00;100882.81;5076446;28;20050;-59
2023/09/14 00:18:24;;;;;;;7.45;2.75;;;;;;;9.21;100.00;100903.09;5075585;28;20057;-64
2023/09/14 00:20:53;;;;;;;8.63;3.00;;;;;;;9.14;100.00;100885.94;5074738;28;20381;-64
2023/09/14 00:23:20;;;;;;;9.13;2.90;;;;;;;9.23;100.00;100906.47;5071282;28;20045;-61
2023/09/14 00:25:49;;;;;;;9.43;2.92;;;;;;;9.15;100.00;100901.00;5053822;28;20064;-63
2023/09/14 00:28:15;;;;;;;8.50;2.80;;;;;;;9.26;100.00;100910.69;5053371;28;20048;-62
2023/09/14 00:30:42;;;;;;;8.88;2.97;;;;;;;9.09;100.00;100894.41;5053447;28;20463;-62
2023/09/14 00:33:10;;;;;;;12.05;3.20;;;;;;;9.03;100.00;100889.63;5053624;28;20114;-62
2023/09/14 00:35:36;;;;;;;8.63;2.63;;;;;;;9.00;100.00;100867.69;5054085;28;20045;-62
2023/09/14 00:38:03;;;;;;;6.78;2.95;;;;;;;9.16;100.00;100902.69;5053268;28;20485;-62
2023/09/14 00:40:30;;;;;;;9.25;3.03;;;;;;;9.26;100.00;100932.13;5053288;28;20053;-61
2023/09/14 00:42:56;;;;;;;8.68;2.72;;;;;;;9.14;100.00;100918.06;5053249;28;20049;-61
2023/09/14 00:45:25;;;;;;;13.35;3.35;;;;;;;8.67;100.00;100834.25;5053429;28;20052;-62
2023/09/14 00:47:58;;;;;;;14.18;2.85;;;;;;;8.73;100.00;100841.72;5053291;28;20098;-62
2023/09/14 00:50:26;;;;;;;7.20;2.47;;;;;;;9.07;100.00;100916.94;5053279;28;20052;-61
2023/09/14 00:53:02;;;;;;;9.93;3.20;;;;;;;8.85;100.00;100883.38;5053326;28;20049;-61
2023/09/14 00:55:29;;;;;;;9.52;2.58;;;;;;;8.91;100.00;100874.72;5053309;28;20069;-62
2023/09/14 00:57:57;;;;;;;6.55;2.80;;;;;;;8.71;100.00;100847.22;5053377;28;20048;-61
2023/09/14 01:00:24;;;;;;;8.50;3.30;;;;;;;8.79;100.00;100862.53;5053076;28;20056;-63
2023/09/14 01:02:52;;;;;;;8.73;3.38;;;;;;;8.93;100.00;100893.34;5052437;28;20577;-61
2023/09/14 01:09:06;;;;;;;9.68;2.63;;;;;;;7.68;100.00;100708.94;5050911;28;20135;-62
2023/09/14 01:11:33;;;;;;;8.02;3.00;;;;;;;7.61;100.00;100697.16;5051298;28;20044;-62
2023/09/14 01:14:11;;;;;;;8.77;2.95;;;;;;;7.84;100.00;100745.78;5061326;28;20094;-62
2023/09/14 01:16:45;;;;;;;12.68;2.97;;;;;;;7.13;100.00;100639.28;5071113;28;20148;-62
2023/09/14 01:19:24;;;;;;;14.13;3.03;;;;;;;7.01;100.00;100619.88;5070663;28;20056;-62
2023/09/14 01:21:56;;;;;;;8.52;3.13;;;;;;;7.69;100.00;100741.81;5071296;28;20044;-62
2023/09/14 01:24:43;;;;;;;8.38;3.17;;;;;;;7.62;100.00;100734.38;5071274;28;20045;-62
2023/09/14 01:27:09;;;;;;;7.15;2.80;;;;;;;7.53;100.00;100731.69;5064618;28;20045;-61
2023/09/14 01:29:36;;;;;;;11.13;3.33;;;;;;;7.30;100.00;100707.97;5052158;28;20073;-66
2023/09/14 01:32:03;;;;;;;8.93;3.00;;;;;;;7.59;100.00;100769.34;5053785;28;20453;-59
2023/09/14 01:34:30;;;;;;;8.55;3.10;;;;;;;7.50;100.00;100754.19;5053064;28;20114;-61
2023/09/14 01:37:03;;;;;;;9.57;3.22;;;;;;;7.52;100.00;100760.22;5053885;28;20045;-66
2023/09/14 01:39:33;;;;;;;10.73;3.47;;;;;;;7.35;100.00;100744.91;5052057;28;20053;-64
2023/09/14 01:42:01;;;;;;;13.63;3.88;;;;;;;7.27;100.00;100736.75;5051411;28;20049;-65
2023/09/14 01:44:30;;;;;;;14.00;3.10;;;;;;;7.23;100.00;100738.84;5051359;28;20481;-63
2023/09/14 01:46:59;;;;;;;6.82;2.80;;;;;;;6.69;100.00;100660.97;5052414;28;20459;-64
2023/09/14 01:49:26;;;;;;;9.60;2.92;;;;;;;6.51;100.00;100632.44;5051631;28;20049;-65
2023/09/14 01:51:53;;;;;;;7.78;2.90;;;;;;;6.52;100.00;100637.63;5051683;28;20045;-66
2023/09/14 01:54:20;;;;;;;10.55;3.10;;;;;;;6.48;100.00;100633.53;5051612;28;20049;-64
2023/09/14 01:56:46;;;;;;;9.35;3.28;;;;;;;6.54;100.00;100643.66;5051211;28;20075;-65
2023/09/14 01:59:13;;;;;;;7.30;2.85;;;;;;;6.50;100.00;100642.25;5050554;28;20053;-66
2023/09/14 02:01:39;;;;;;;10.57;2.78;;;;;;;7.00;100.00;100724.06;5051747;28;20045;-66
2023/09/14 02:04:06;;;;;;;8.57;3.50;;;;;;;7.16;100.00;100751.91;5051248;28;20137;-65
2023/09/14 02:06:33;;;;;;;9.32;3.30;;;;;;;7.12;100.00;100760.31;5051436;28;20041;-66
2023/09/14 02:09:01;;;;;;;9.48;3.63;;;;;;;6.97;100.00;100746.50;5051175;28;20041;-64
2023/09/14 02:11:27;;;;;;;9.50;3.50;;;;;;;6.89;100.00;100743.69;5051549;28;20049;-64
2023/09/14 02:13:54;;;;;;;7.47;3.42;;;;;;;6.77;100.00;100742.09;5060035;28;20044;-66
2023/09/14 02:16:21;;;;;;;7.82;3.30;;;;;;;6.70;100.00;100733.78;5070948;28;20048;-65
2023/09/14 02:18:47;;;;;;;12.52;3.72;;;;;;;6.64;100.00;100735.19;5070494;28;20078;-64
2023/09/14 02:21:16;;;;;;;12.23;3.45;;;;;;;6.55;100.00;100730.63;5069725;28;20052;-64
2023/09/14 02:23:43;;;;;;;11.05;3.40;;;;;;;6.42;100.00;100711.34;5071113;28;20045;-65
2023/09/14 02:26:10;;;;;;;8.73;2.92;;;;;;;6.50;100.00;100738.22;5070276;28;20101;-66
2023/09/14 02:28:37;;;;;;;8.13;2.88;;;;;;;6.55;100.00;100751.97;5069848;28;20048;-64
2023/09/14 02:31:10;;;;;;;11.15;3.80;;;;;;;6.36;100.00;100728.75;5070332;28;20048;-64
2023/09/14 02:33:37;;;;;;;11.90;3.83;;;;;;;6.47;100.00;100759.78;5070609;28;20397;-65
2023/09/14 02:36:05;;;;;;;6.60;3.65;;;;;;;6.54;100.00;100768.94;5070171;28;20075;-64
2023/09/14 02:38:32;;;;;;;11.27;3.90;;;;;;;6.51;100.00;100768.38;5070247;28;20040;-64
2023/09/14 02:40:58;;;;;;;14.07;4.00;;;;;;;6.68;100.00;100802.41;5071283;28;20397;-65
2023/09/14 02:43:25;;;;;;;12.10;3.50;;;;;;;6.67;100.00;100806.06;5071302;28;20041;-64
2023/09/14 02:45:51;;;;;;;13.32;3.55;;;;;;;6.68;100.00;100813.91;5070005;28;20049;-64
2023/09/14 02:48:18;;;;;;;9.32;3.28;;;;;;;6.62;100.00;100811.75;5070422;28;20044;-65
2023/09/14 02:50:46;;;;;;;11.65;3.78;;;;;;;6.62;100.00;100817.09;5068971;28;20060;-64
2023/09/14 02:53:12;;;;;;;5.93;3.10;;;;;;;6.66;100.00;100837.19;5070536;28;20098;-66
2023/09/14 02:55:39;;;;;;;9.32;3.13;;;;;;;6.65;100.00;100832.84;5070294;28;20047;-66
2023/09/14 02:58:08;;;;;;;12.00;3.72;;;;;;;6.61;100.00;100825.25;5070537;28;20041;-64
2023/09/14 03:00:37;;;;;;;9.38;3.35;;;;;;;6.87;100.00;100871.81;5068888;28;20044;-66
2023/09/14 03:03:04;;;;;;;11.13;3.90;;;;;;;6.79;100.00;100876.13;5069560;28;20049;-65
2023/09/14 03:05:31;;;;;;;11.93;3.60;;;;;;;6.71;100.00;100874.97;5070481;28;20121;-65
2023/09/14 03:07:57;;;;;;;10.73;3.80;;;;;;;6.69;100.00;100871.56;5070878;28;20060;-65
2023/09/14 03:10:24;;;;;;;9.05;3.38;;;;;;;6.62;100.00;100865.06;5070465;28;20113;-65
2023/09/14 03:12:50;;;;;;;11.13;4.05;;;;;;;6.52;100.00;100856.16;5069570;28;20385;-65
2023/09/14 03:15:17;;;;;;;11.75;3.55;;;;;;;6.52;100.00;100863.31;5069984;28;20082;-65
2023/09/14 03:17:44;;;;;;;9.48;3.45;;;;;;;6.52;100.00;100860.66;5069762;28;20468;-65
2023/09/14 03:20:11;;;;;;;10.35;3.80;;;;;;;6.60;100.00;100888.38;5069091;28;20045;-64
2023/09/14 03:22:38;;;;;;;12.45;3.78;;;;;;;6.53;100.00;100884.53;5070637;28;20052;-65
2023/09/14 03:25:06;;;;;;;6.32;3.53;;;;;;;6.52;100.00;100888.16;5070424;28;20048;-64
2023/09/14 03:27:33;;;;;;;8.68;3.47;;;;;;;6.43;100.00;100875.63;5069217;28;20068;-65
2023/09/14 03:30:02;;;;;;;11.40;3.80;;;;;;;6.35;100.00;100864.75;5069481;28;20047;-66
2023/09/14 03:32:28;;;;;;;10.05;4.28;;;;;;;6.40;100.00;100878.56;5070586;28;20044;-64
2023/09/14 03:34:55;;;;;;;13.40;4.13;;;;;;;6.37;100.00;100878.81;5070327;28;20056;-66
2023/09/14 03:37:22;;;;;;;12.05;3.83;;;;;;;6.35;100.00;100899.41;5069061;28;20505;-65
2023/09/14 03:39:48;;;;;;;32.22;16.25;;;;;;;6.30;100.00;100890.94;5069272;28;20531;-66
2023/09/14 03:42:15;;;;;;;11.85;5.15;;;;;;;6.28;100.00;100907.06;5069872;28;20048;-65
2023/09/14 03:44:41;;;;;;;13.13;5.82;;;;;;;6.26;100.00;100916.16;5069711;28;20070;-64
2023/09/14 03:47:08;;;;;;;13.38;4.57;;;;;;;6.18;100.00;100890.97;5069927;28;20451;-66
2023/09/14 03:49:34;;;;;;;8.20;3.83;;;;;;;6.24;100.00;100902.94;5069299;28;20075;-63
2023/09/14 03:52:00;;;;;;;10.60;4.03;;;;;;;6.17;100.00;100893.75;5069193;28;20132;-64
2023/09/14 03:54:27;;;;;;;7.50;3.63;;;;;;;6.22;100.00;100912.88;5070971;28;20080;-64
2023/09/14 03:56:54;;;;;;;11.98;3.55;;;;;;;6.19;100.00;100910.47;5070161;28;20045;-65
2023/09/14 03:59:21;;;;;;;9.32;3.90;;;;;;;6.18;100.00;100914.97;5069700;28;20045;-65
2023/09/14 04:01:48;;;;;;;12.73;4.32;;;;;;;6.13;100.00;100913.63;5070772;28;20109;-65
2023/09/14 04:04:14;;;;;;;8.70;3.78;;;;;;;6.15;100.00;100917.03;5070232;28;20441;-64
2023/09/14 04:06:41;;;;;;;10.73;4.18;;;;;;;6.17;100.00;100917.72;5069838;28;20048;-64
2023/09/14 04:09:08;;;;;;;11.23;4.10;;;;;;;6.16;100.00;100927.53;5069748;28;20055;-65
2023/09/14 04:11:35;;;;;;;9.80;4.10;;;;;;;6.12;100.00;100915.47;5069977;28;20467;-65
2023/09/14 04:14:02;;;;;;;9.10;3.88;;;;;;;6.06;100.00;100915.94;5070173;28;20044;-64
2023/09/14 04:16:30;;;;;;;9.13;3.92;;;;;;;6.02;100.00;100919.84;5069472;28;20041;-65
2023/09/14 04:19:00;;;;;;;11.98;4.55;;;;;;;6.03;100.00;100926.00;5069820;28;20040;-66
2023/09/14 04:21:28;;;;;;;10.95;4.18;;;;;;;6.04;100.00;100930.34;5070132;28;20041;-65
2023/09/14 04:23:54;;;;;;;17.80;4.38;;;;;;;6.03;100.00;100940.16;5069890;28;20049;-65
2023/09/14 04:26:21;;;;;;;14.73;4.68;;;;;;;6.01;100.00;100950.13;5069323;28;20098;-67
2023/09/14 04:28:47;;;;;;;10.93;4.10;;;;;;;5.99;100.00;100944.06;5068379;28;20098;-65
2023/09/14 04:31:14;;;;;;;9.55;3.72;;;;;;;5.94;100.00;100930.25;5069158;28;20056;-65
2023/09/14 04:33:42;;;;;;;9.15;4.05;;;;;;;5.94;100.00;100932.91;5068569;28;20045;-65
2023/09/14 04:36:08;;;;;;;11.73;4.05;;;;;;;5.91;100.00;100934.03;5069273;28;20052;-64
2023/09/14 04:38:35;;;;;;;9.30;3.65;;;;;;;6.02;100.00;100958.94;5069180;28;20048;-65
2023/09/14 04:41:06;;;;;;;14.27;4.75;;;;;;;6.03;100.00;100960.63;5072485;28;20041;-64
2023/09/14 04:43:32;;;;;;;12.57;4.45;;;;;;;5.89;100.00;100940.44;5072084;28;20571;-65
2023/09/14 04:46:06;;;;;;;10.52;4.20;;;;;;;5.83;100.00;100935.63;5064802;28;20048;-65
2023/09/14 04:48:34;;;;;;;16.58;5.35;;;;;;;5.80;100.00;100942.03;5054097;28;20041;-66
2023/09/14 04:51:00;;;;;;;11.18;4.63;;;;;;;5.87;100.00;100943.25;5053334;28;20056;-64
2023/09/14 04:53:27;;;;;;;8.45;4.85;;;;;;;5.90;100.00;100948.31;5053466;28;20052;-65
2023/09/14 04:55:54;;;;;;;17.17;4.85;;;;;;;5.84;100.00;100945.31;5053893;28;20381;-66
2023/09/14 04:58:21;;;;;;;13.40;4.38;;;;;;;5.86;100.00;100949.53;5054482;28;20106;-65
2023/09/14 05:00:51;;;;;;;10.43;4.05;;;;;;;5.86;100.00;100957.50;5055198;28;20547;-64
2023/09/14 05:03:18;;;;;;;5.78;4.30;;;;;;;5.99;100.00;100966.22;5072062;28;20123;-64
2023/09/14 05:05:53;;;;;;;12.77;4.85;;;;;;;6.00;100.00;100978.53;5072231;28;20864;-64
2023/09/14 05:08:21;;;;;;;15.40;4.63;;;;;;;6.16;100.00;101002.13;5071757;28;20064;-63
2023/09/14 05:10:51;;;;;;;10.45;4.13;;;;;;;6.04;100.00;100996.94;5072232;28;20048;-64
2023/09/14 05:13:20;;;;;;;10.18;4.00;;;;;;;6.06;100.00;101008.34;5071457;28;20462;-63
2023/09/14 05:15:47;;;;;;;10.88;4.38;;;;;;;5.98;100.00;101007.13;5073428;28;20044;-58
2023/09/14 05:18:14;;;;;;;12.13;4.82;;;;;;;5.99;100.00;101003.50;5074173;28;20053;-60
2023/09/14 05:20:44;;;;;;;10.40;4.15;;;;;;;5.96;100.00;101008.22;5073407;28;20106;-59
2023/09/14 05:23:11;;;;;;;12.90;4.93;;;;;;;6.10;100.00;101018.59;5073837;28;20068;-58
2023/09/14 05:25:38;;;;;;;9.55;4.28;;;;;;;6.14;100.00;101028.03;5073720;28;20090;-60
2023/09/14 05:28:05;;;;;;;14.20;4.82;;;;;;;6.08;100.00;101025.88;5073664;28;20067;-59
2023/09/14 05:30:32;;;;;;;10.25;4.35;;;;;;;6.05;100.00;101019.97;5073003;28;20044;-59
2023/09/14 05:32:59;;;;;;;9.82;4.65;;;;;;;5.87;100.00;101001.84;5073864;28;20407;-58
2023/09/14 05:35:26;;;;;;;11.85;4.47;;;;;;;5.91;100.00;101007.75;5073874;28;20041;-58
2023/09/14 05:37:53;;;;;;;10.38;4.50;;;;;;;5.92;100.00;101018.28;5073337;28;20044;-60
2023/09/14 05:40:19;;;;;;;22.75;4.40;;;;;;;5.93;100.00;101014.63;5074178;28;20059;-59
2023/09/14 05:42:46;;;;;;;8.32;4.47;;;;;;;6.07;100.00;101034.84;5073857;28;20500;-60
2023/09/14 05:45:12;;;;;;;13.48;4.75;;;;;;;6.15;100.00;101043.06;5073762;28;20071;-58
2023/09/14 05:47:39;;;;;;;9.05;4.45;;;;;;;6.14;100.00;101049.34;5074030;28;20044;-59
2023/09/14 05:50:08;;;;;;;13.07;4.90;;;;;;;6.15;100.00;101045.72;5073381;28;20504;-59
2023/09/14 05:52:35;;;;;;;9.60;4.55;;;;;;;6.14;100.00;101054.66;5073715;28;20047;-59
2023/09/14 05:55:05;;;;;;;14.10;5.30;;;;;;;6.18;100.00;101060.59;5073951;28;20045;-58
2023/09/14 05:57:32;;;;;;;12.43;4.70;;;;;;;6.21;100.00;101065.69;5074418;28;20052;-59
2023/09/14 05:59:59;;;;;;;8.82;4.28;;;;;;;6.29;100.00;101062.44;5074765;28;20048;-66
2023/09/14 06:02:27;;;;;;;17.10;4.20;;;;;;;6.48;100.00;101089.28;5073938;28;20037;-66
2023/09/14 06:04:54;;;;;;;9.55;4.47;;;;;;;6.51;100.00;101094.38;5071772;28;20128;-66
2023/09/14 06:07:37;;;;;;;12.15;4.55;;;;;;;6.61;100.00;101103.31;5055337;28;20055;-66
2023/09/14 06:10:05;;;;;;;10.25;4.40;;;;;;;6.65;100.00;101110.09;5052538;28;20045;-65
2023/09/14 06:12:32;;;;;;;10.82;4.63;;;;;;;6.77;100.00;101110.06;5051632;28;20045;-66
2023/09/14 06:14:59;;;;;;;15.60;8.52;;;;;;;6.98;100.00;101142.09;5071400;28;20097;-65
2023/09/14 06:17:25;;;;;;;12.15;6.03;;;;;;;7.07;100.00;101142.19;5058994;28;20041;-63
2023/09/14 06:19:53;;;;;;;13.32;4.70;;;;;;;7.28;100.00;101165.41;5050789;28;20049;-64
2023/09/14 06:22:19;;;;;;;14.90;4.55;;;;;;;7.60;100.00;101200.94;5050926;28;20101;-64
2023/09/14 06:24:46;;;;;;;9.30;4.30;;;;;;;7.88;100.00;101239.56;5051127;28;20041;-64
2023/09/14 06:27:12;;;;;;;9.30;4.10;;;;;;;8.23;100.00;101234.84;5050837;28;20049;-64
2023/09/14 06:29:39;;;;;;;11.75;4.57;;;;;;;8.76;100.00;101298.84;5050443;28;20460;-64
2023/09/14 06:32:05;;;;;;;14.05;4.22;;;;;;;9.03;100.00;101299.09;5050853;28;20094;-64
2023/09/14 06:34:32;;;;;;;10.32;4.60;;;;;;;9.70;100.00;101356.50;5050482;28;20045;-63
2023/09/14 06:36:59;;;;;;;12.73;4.50;;;;;;;10.20;100.00;101393.06;5051149;28;20171;-64
2023/09/14 06:39:26;;;;;;;9.20;3.70;;;;;;;10.54;100.00;101419.47;5049723;28;20045;-63
2023/09/14 06:41:52;;;;;;;10.10;3.83;;;;;;;10.89;100.00;101446.53;5050362;28;20045;-63
2023/09/14 06:44:19;;;;;;;10.25;3.95;;;;;;;11.29;100.00;101452.66;5050659;28;20094;-64
2023/09/14 06:46:46;;;;;;;8.18;3.58;;;;;;;11.34;100.00;101474.53;5050578;28;20136;-67
2023/09/14 06:49:14;;;;;;;13.38;4.22;;;;;;;10.96;100.00;101465.59;5050761;28;20484;-66
2023/09/14 06:51:41;;;;;;;15.20;3.90;;;;;;;10.92;100.00;101467.72;5051951;28;20048;-70
2023/09/14 06:54:08;;;;;;;17.88;4.30;;;;;;;11.06;100.00;101465.56;5051642;28;20076;-70
2023/09/14 06:56:34;;;;;;;13.13;4.43;;;;;;;11.39;100.00;101478.47;5051564;28;20068;-71
2023/09/14 06:59:01;;;;;;;9.32;3.97;;;;;;;11.56;100.00;101484.91;5051996;28;20045;-69
2023/09/14 07:01:29;;;;;;;8.77;3.92;;;;;;;11.94;100.00;101491.13;5052789;28;20045;-70
2023/09/14 07:03:55;;;;;;;13.90;4.43;;;;;;;12.21;100.00;101514.47;5051319;28;20409;-71
2023/09/14 07:06:22;;;;;;;9.35;3.30;;;;;;;12.56;100.00;101520.88;5050610;28;20071;-70
2023/09/14 07:08:49;;;;;;;10.95;3.47;;;;;;;12.77;100.00;101532.19;5054389;28;20045;-70
2023/09/14 07:11:15;;;;;;;6.10;3.60;;;;;;;13.19;100.00;101531.53;5050796;28;20148;-70
2023/09/14 07:13:42;;;;;;;8.50;3.40;;;;;;;13.21;100.00;101542.13;5058942;28;20090;-71
2023/09/14 07:16:09;;;;;;;7.35;3.17;;;;;;;13.08;100.00;101546.09;5070850;28;20048;-69
2023/09/14 07:18:36;;;;;;;14.68;3.83;;;;;;;13.30;100.00;101547.41;5070435;28;20060;-71
2023/09/14 07:21:02;;;;;;;6.20;3.13;;;;;;;13.75;100.00;101564.38;5060189;28;20409;-70
2023/09/14 07:23:30;;;;;;;10.07;3.95;;;;;;;14.37;100.00;101566.84;5051154;28;20414;-72
2023/09/14 07:25:57;;;;;;;15.95;4.20;;;;;;;14.77;100.00;101572.38;5051202;28;20045;-72
2023/09/14 07:28:23;;;;;;;8.93;3.40;;;;;;;15.09;100.00;101581.50;5049508;28;20079;-71
2023/09/14 07:30:51;;;;;;;8.85;3.30;;;;;;;14.89;100.00;101590.94;5049812;28;20096;-70
2023/09/14 07:33:18;;;;;;;11.77;3.22;;;;;;;15.28;100.00;101592.97;5050980;28;20062;-70
2023/09/14 07:35:47;;;;;;;7.88;3.58;;;;;;;15.31;100.00;101592.63;5051291;28;20077;-71
2023/09/14 07:38:14;;;;;;;11.48;3.60;;;;;;;15.49;100.00;101588.72;5070683;28;20053;-70
2023/09/14 07:40:42;;;;;;;9.00;3.22;;;;;;;15.46;100.00;101590.91;5070832;28;20070;-71
2023/09/14 07:43:09;;;;;;;9.88;3.17;;;;;;;15.84;100.00;101593.91;5071263;28;20072;-70
2023/09/14 07:45:37;;;;;;;6.00;2.90;;;;;;;16.68;100.00;101600.50;5070024;28;20044;-70
2023/09/14 07:48:06;;;;;;;4.88;2.67;;;;;;;16.50;100.00;101600.75;5053139;28;20045;-70
2023/09/14 07:50:39;;;;;;;10.13;2.85;;;;;;;16.69;100.00;101596.75;5050258;28;20107;-70
2023/09/14 07:53:07;;;;;;;8.40;2.83;;;;;;;16.93;100.00;101603.88;5065699;28;20055;-71
2023/09/14 07:55:33;;;;;;;8.82;3.40;;;;;;;17.45;100.00;101613.97;5070790;28;20071;-71
2023/09/14 07:58:00;;;;;;;5.93;2.50;;;;;;;17.31;100.00;101609.34;5070858;28;20048;-71
2023/09/14 08:00:27;;;;;;;8.85;2.70;;;;;;;17.65;100.00;101618.84;5071772;28;20040;-72
2023/09/14 08:02:54;;;;;;;7.63;2.60;;;;;;;18.83;100.00;101616.03;5066894;28;20049;-72
2023/09/14 08:05:20;;;;;;;11.82;3.30;;;;;;;18.36;100.00;101620.09;5051745;28;20140;-71
2023/09/14 08:07:47;;;;;;;11.07;2.42;;;;;;;18.48;99.53;101618.59;5050534;28;20045;-71
2023/09/14 08:10:13;;;;;;;7.95;2.30;;;;;;;18.24;98.73;101622.47;5050371;28;20519;-71
2023/09/14 08:12:40;;;;;;;8.02;2.63;;;;;;;18.27;98.99;101618.50;5050349;28;20521;-71
2023/09/14 08:15:07;;;;;;;7.63;2.45;;;;;;;18.16;100.00;101611.69;5072527;28;20052;-71
2023/09/14 08:17:34;;;;;;;13.93;2.30;;;;;;;17.99;100.00;101619.16;5061681;28;20535;-71
2023/09/14 08:20:01;;;;;;;9.60;2.30;;;;;;;18.72;95.41;101613.81;5060368;28;20045;-72
2023/09/14 08:22:28;;;;;;;7.03;2.53;;;;;;;19.65;85.85;101611.94;5067056;28;20044;-70
2023/09/14 08:24:58;;;;;;;15.35;2.47;;;;;;;19.92;76.94;101608.38;5058320;28;20041;-70
2023/09/14 08:27:25;;;;;;;5.82;2.40;;;;;;;18.98;82.66;101608.69;5054402;28;20048;-71
2023/09/14 08:29:52;;;;;;;6.53;2.25;;;;;;;19.40;84.56;101606.97;5054875;28;20057;-72
2023/09/14 08:32:18;;;;;;;8.70;2.55;;;;;;;19.76;76.67;101611.44;5052854;28;20476;-71
2023/09/14 08:34:45;;;;;;;7.95;2.58;;;;;;;20.20;77.38;101604.75;5051999;28;20497;-72
2023/09/14 08:37:13;;;;;;;9.55;2.33;;;;;;;21.30;71.62;101611.78;5052407;28;20068;-70
2023/09/14 08:39:40;;;;;;;7.22;1.98;;;;;;;20.97;64.97;101614.44;5054064;28;20049;-72
2023/09/14 08:42:06;;;;;;;7.80;2.35;;;;;;;20.74;68.82;101598.47;5053974;28;20090;-70
2023/09/14 08:44:34;;;;;;;9.32;2.80;;;;;;;21.10;61.26;101606.28;5053346;28;20048;-69
2023/09/14 08:47:01;;;;;;;6.65;1.88;;;;;;;22.76;60.71;101608.66;5066571;28;20049;-72
2023/09/14 08:49:34;;;;;;;3.58;1.70;;;;;;;23.30;57.90;101605.56;5070114;28;20041;-70
2023/09/14 08:52:01;;;;;;;8.65;2.33;;;;;;;23.33;55.44;101608.69;5053111;28;20037;-70
2023/09/14 08:54:29;;;;;;;7.25;2.35;;;;;;;24.66;51.39;101616.28;5053908;28;20417;-71
2023/09/14 08:56:56;;;;;;;8.27;2.03;;;;;;;23.70;50.39;101615.06;5054768;28;20052;-72
2023/09/14 08:59:23;;;;;;;7.13;2.45;;;;;;;22.06;54.68;101616.72;5062120;28;20045;-72
2023/09/14 09:01:52;;;;;;;7.55;2.17;;;;;;;21.69;55.27;101623.72;5072878;28;20053;-72
2023/09/14 09:04:19;;;;;;;5.05;1.95;;;;;;;21.85;53.46;101626.03;5073228;28;20463;-71
2023/09/14 09:06:47;;;;;;;5.88;1.80;;;;;;;22.56;51.77;101619.69;5055035;28;20060;-70
2023/09/14 09:09:18;;;;;;;6.85;1.85;;;;;;;22.99;51.56;101623.66;5053661;28;20416;-70
2023/09/14 09:11:46;;;;;;;7.28;1.85;;;;;;;22.87;50.33;101618.03;5056244;28;20492;-71
2023/09/14 09:14:13;;;;;;;5.28;1.88;;;;;;;22.03;52.36;101622.63;5072633;28;20048;-71
2023/09/14 09:16:40;;;;;;;13.38;2.22;;;;;;;20.36;57.98;101622.66;5072846;28;20557;-71
2023/09/14 09:19:08;;;;;;;5.55;2.17;;;;;;;20.41;59.86;101626.47;5072686;28;20052;-71
2023/09/14 09:21:37;;;;;;;8.15;1.95;;;;;;;22.69;54.79;101623.44;5073381;28;20045;-70
2023/09/14 09:24:04;;;;;;;5.90;2.28;;;;;;;20.68;55.71;101621.13;5072797;28;20504;-71
2023/09/14 09:26:34;;;;;;;3.90;2.05;;;;;;;20.00;58.86;101618.28;5072802;28;20049;-69
2023/09/14 09:29:00;;;;;;;5.82;1.95;;;;;;;19.60;63.96;101619.88;5072886;28;20044;-68
2023/09/14 09:31:44;;;;;;;6.28;2.05;;;;;;;20.53;61.11;101613.09;5073046;28;20458;-69
2023/09/14 09:34:12;;;;;;;5.03;1.98;;;;;;;22.87;55.03;101628.16;5051846;28;20049;-70
2023/09/14 09:36:39;;;;;;;6.20;2.00;;;;;;;23.88;50.92;101627.97;5052580;28;20460;-71
2023/09/14 09:39:07;;;;;;;8.95;1.90;;;;;;;21.67;51.90;101634.03;5052248;28;20485;-65
2023/09/14 09:41:34;;;;;;;8.43;2.03;;;;;;;20.89;55.63;101631.03;5052541;28;20550;-66
2023/09/14 09:44:10;;;;;;;6.35;1.98;;;;;;;20.48;59.38;101626.50;5052648;28;20071;-66
2023/09/14 09:46:37;;;;;;;6.60;2.47;;;;;;;21.44;53.85;101622.69;5050910;28;20049;-65
2023/09/14 09:49:17;;;;;;;4.93;1.90;;;;;;;23.71;48.86;101627.72;5052597;28;20044;-66
2023/09/14 09:51:50;;;;;;;8.07;1.70;;;;;;;23.89;48.11;101628.84;5051786;28;20052;-65
2023/09/14 09:54:24;;;;;;;6.80;1.98;;;;;;;23.33;48.99;101629.72;5051627;28;20045;-65
2023/09/14 09:56:51;;;;;;;5.50;2.05;;;;;;;21.45;51.78;101627.09;5051983;28;20055;-66
2023/09/14 09:59:18;;;;;;;7.55;2.25;;;;;;;21.18;55.30;101632.53;5051715;28;20095;-65
2023/09/14 10:01:46;;;;;;;8.20;2.25;;;;;;;19.90;57.94;101626.84;5051856;28;20071;-66
2023/09/14 10:04:16;;;;;;;6.70;2.20;;;;;;;21.22;55.67;101624.81;5051812;28;20396;-65
2023/09/14 10:06:51;;;;;;;2.83;1.60;;;;;;;23.25;50.17;101623.47;5051859;28;20045;-66
2023/09/14 10:09:18;;;;;;;3.88;1.70;;;;;;;21.92;50.30;101625.19;5052011;28;20055;-66
2023/09/14 10:11:48;;;;;;;5.00;2.25;;;;;;;20.23;57.23;101630.78;5052053;28;20045;-65
2023/09/14 10:14:18;;;;;;;5.60;1.70;;;;;;;19.93;60.60;101621.00;5039871;28;20049;-67
2023/09/14 10:16:45;;;;;;;7.40;2.25;;;;;;;19.40;62.49;101623.28;5031404;28;20047;-66
2023/09/14 10:19:18;;;;;;;;;;;;;;;20.13;56.84;101622.97;5031339;28;20050;-65
2023/09/14 10:21:46;;;;;;;7.45;1.95;;;;;;;22.63;52.94;101627.88;5031065;28;19921;-65
2023/09/14 10:24:15;;;;;;;13.60;2.08;;;;;;;23.30;50.54;101624.72;5031222;28;20057;-65
2023/09/14 10:26:44;;;;;;;9.48;2.03;;;;;;;24.41;46.91;101621.06;5030962;28;20045;-65
2023/09/14 10:29:10;;;;;;;8.65;2.47;;;;;;;25.36;43.71;101621.13;5032383;28;20057;-67
2023/09/14 10:31:42;;;;;;;7.70;1.70;;;;;;;24.52;41.00;101631.25;5030870;28;20053;-65
2023/09/14 10:34:10;;;;;;;4.00;2.03;;;;;;;25.63;42.22;101617.13;5031638;28;20049;-65
2023/09/14 10:36:40;;;;;;;4.25;1.95;;;;;;;26.39;39.79;101627.03;5030997;28;20052;-66
2023/09/14 10:39:08;;;;;;;7.95;1.70;;;;;;;25.03;38.63;101613.44;5031611;28;20053;-66
2023/09/14 10:41:34;;;;;;;7.30;2.20;;;;;;;25.61;39.93;101618.16;5031947;28;20045;-66
2023/09/14 10:44:01;;;;;;;7.22;2.10;;;;;;;25.97;39.13;101616.25;5031452;28;20467;-68
2023/09/14 10:46:35;;;;;;;9.23;2.10;;;;;;;26.22;39.07;101612.38;5032822;28;20099;-65
2023/09/14 10:49:03;;;;;;;5.95;1.90;;;;;;;25.38;40.12;101620.91;5047894;28;20119;-65
2023/09/14 10:51:30;;;;;;;9.20;1.73;;;;;;;24.87;41.74;101614.09;5051786;28;20044;-65
2023/09/14 10:53:57;;;;;;;6.53;1.92;;;;;;;25.02;41.24;101616.41;5047124;28;20037;-65
2023/09/14 10:56:33;;;;;;;9.18;2.10;;;;;;;22.90;41.73;101616.78;5051742;28;20484;-65
2023/09/14 10:59:09;;;;;;;10.57;2.75;;;;;;;21.87;44.07;101619.50;5052324;28;20041;-65
2023/09/14 11:01:47;;;;;;;6.50;2.22;;;;;;;21.95;46.29;101616.56;5051178;28;20118;-65
2023/09/14 11:04:18;;;;;;;7.75;1.85;;;;;;;22.00;48.26;101614.03;5051480;28;20488;-65
2023/09/14 11:06:51;;;;;;;6.13;2.17;;;;;;;22.59;46.38;101618.44;5051215;28;20041;-65
2023/09/14 11:09:20;;;;;;;5.97;2.15;;;;;;;21.55;45.71;101609.25;5051792;28;20554;-65
2023/09/14 11:11:51;;;;;;;10.80;1.95;;;;;;;21.63;47.64;101608.16;5050162;28;20051;-64
2023/09/14 11:14:24;;;;;;;5.38;1.70;;;;;;;21.45;48.30;101608.81;5064003;28;20404;-66
2023/09/14 11:16:53;;;;;;;6.00;2.10;;;;;;;21.52;48.56;101606.09;5070810;28;20072;-65
2023/09/14 11:19:30;;;;;;;4.40;2.35;;;;;;;21.36;50.29;101605.50;5068718;28;20052;-64
2023/09/14 11:22:15;;;;;;;6.88;2.20;;;;;;;21.40;49.39;101600.44;5071544;28;20161;-64
2023/09/14 11:24:45;;;;;;;4.60;2.08;;;;;;;21.46;50.79;101606.94;5070925;28;20048;-63
2023/09/14 11:27:17;;;;;;;6.88;2.53;;;;;;;21.52;49.97;101603.38;5071186;28;20099;-63
2023/09/14 11:29:47;;;;;;;6.80;2.20;;;;;;;21.49;49.28;101606.50;5071082;28;20044;-71